sensor_id;sensor_type;location;lat;lon;timestamp;temperature;humidity
44215;DHT22;29884;47.450;19.124;2023-08-21T00:01:29;22.80;99.90
44215;DHT22;29884;47.450;19.124;2023-08-21T00:03:55;22.90;99.90
44215;DHT22;29884;47.450;19.124;2023-08-21T00:06:20;22.90;99.90
44215;DHT22;29884;47.450;19.124;2023-08-21T00:08:46;22.90;99.90
44215;DHT22;29884;47.450;19.124;2023-08-21T00:11:12;22.80;99.90
44215;DHT22;29884;47.450;19.124;2023-08-21T00:13:37;22.80;99.90
44215;DHT22;29884;47.450;19.124;2023-08-21T00:16:03;22.80;99.90
44215;DHT22;29884;47.450;19.124;2023-08-21T00:18:29;22.80;99.90
44215;DHT22;29884;47.450;19.124;2023-08-21T00:20:55;22.70;99.90
44215;DHT22;29884;47.450;19.124;2023-08-21T00:23:21;22.70;99.90
44215;DHT22;29884;47.450;19.124;2023-08-21T00:25:47;22.70;99.90
44215;DHT22;29884;47.450;19.124;2023-08-21T00:28:13;22.70;99.90
44215;DHT22;29884;47.450;19.124;2023-08-21T00:30:39;22.60;99.90
44215;DHT22;29884;47.450;19.124;2023-08-21T00:33:05;22.60;99.90
44215;DHT22;29884;47.450;19.124;2023-08-21T00:35:31;22.60;99.90
44215;DHT22;29884;47.450;19.124;2023-08-21T00:37:56;22.60;99.90
44215;DHT22;29884;47.450;19.124;2023-08-21T00:40:22;22.60;99.90
44215;DHT22;29884;47.450;19.124;2023-08-21T00:42:48;22.60;99.90
44215;DHT22;29884;47.450;19.124;2023-08-21T00:45:14;22.60;99.90
44215;DHT22;29884;47.450;19.124;2023-08-21T00:47:39;22.60;99.90
44215;DHT22;29884;47.450;19.124;2023-08-21T00:50:07;22.70;99.90
44215;DHT22;29884;47.450;19.124;2023-08-21T00:52:34;22.70;99.90
44215;DHT22;29884;47.450;19.124;2023-08-21T00:55:01;22.70;99.90
44215;DHT22;29884;47.450;19.124;2023-08-21T00:57:28;22.70;99.90
44215;DHT22;29884;47.450;19.124;2023-08-21T00:59:54;22.60;99.90
44215;DHT22;29884;47.450;19.124;2023-08-21T01:02:20;22.60;99.90
44215;DHT22;29884;47.450;19.124;2023-08-21T01:04:46;22.60;99.90
44215;DHT22;29884;47.450;19.124;2023-08-21T01:07:13;22.60;99.90
44215;DHT22;29884;47.450;19.124;2023-08-21T01:09:49;22.60;99.90
44215;DHT22;29884;47.450;19.124;2023-08-21T01:12:19;22.60;99.90
44215;DHT22;29884;47.450;19.124;2023-08-21T01:17:18;22.60;99.90
44215;DHT22;29884;47.450;19.124;2023-08-21T01:19:48;22.60;99.90
44215;DHT22;29884;47.450;19.124;2023-08-21T01:22:14;22.60;99.90
44215;DHT22;29884;47.450;19.124;2023-08-21T01:24:40;22.60;99.90
44215;DHT22;29884;47.450;19.124;2023-08-21T01:27:06;22.60;99.90
44215;DHT22;29884;47.450;19.124;2023-08-21T01:29:33;22.60;99.90
44215;DHT22;29884;47.450;19.124;2023-08-21T01:34:46;22.50;99.90
44215;DHT22;29884;47.450;19.124;2023-08-21T01:37:13;22.50;99.90
44215;DHT22;29884;47.450;19.124;2023-08-21T01:39:39;22.50;99.90
44215;DHT22;29884;47.450;19.124;2023-08-21T01:42:05;22.60;99.90
44215;DHT22;29884;47.450;19.124;2023-08-21T01:44:31;22.50;99.90
44215;DHT22;29884;47.450;19.124;2023-08-21T01:46:56;22.60;99.90
44215;DHT22;29884;47.450;19.124;2023-08-21T01:49:22;22.60;99.90
44215;DHT22;29884;47.450;19.124;2023-08-21T01:51:48;22.50;99.90
44215;DHT22;29884;47.450;19.124;2023-08-21T01:54:13;22.50;99.90
44215;DHT22;29884;47.450;19.124;2023-08-21T01:56:39;22.50;99.90
44215;DHT22;29884;47.450;19.124;2023-08-21T01:59:05;22.50;99.90
44215;DHT22;29884;47.450;19.124;2023-08-21T02:01:32;22.40;99.90
44215;DHT22;29884;47.450;19.124;2023-08-21T02:03:58;22.40;99.90
44215;DHT22;29884;47.450;19.124;2023-08-21T02:06:24;22.40;99.90
44215;DHT22;29884;47.450;19.124;2023-08-21T02:08:50;22.40;99.90
44215;DHT22;29884;47.450;19.124;2023-08-21T02:11:15;22.30;99.90
44215;DHT22;29884;47.450;19.124;2023-08-21T02:13:41;22.30;99.90
44215;DHT22;29884;47.450;19.124;2023-08-21T02:16:07;22.30;99.90
44215;DHT22;29884;47.450;19.124;2023-08-21T02:18:33;22.30;99.90
44215;DHT22;29884;47.450;19.124;2023-08-21T02:21:00;22.30;99.90
44215;DHT22;29884;47.450;19.124;2023-08-21T02:23:26;22.40;99.90
44215;DHT22;29884;47.450;19.124;2023-08-21T02:25:53;22.40;99.90
44215;DHT22;29884;47.450;19.124;2023-08-21T02:28:18;22.30;99.90
44215;DHT22;29884;47.450;19.124;2023-08-21T02:30:45;22.40;99.90
44215;DHT22;29884;47.450;19.124;2023-08-21T02:33:10;22.40;99.90
44215;DHT22;29884;47.450;19.124;2023-08-21T02:35:36;22.30;99.90
44215;DHT22;29884;47.450;19.124;2023-08-21T02:38:02;22.30;99.90
44215;DHT22;29884;47.450;19.124;2023-08-21T02:40:28;22.30;99.90
44215;DHT22;29884;47.450;19.124;2023-08-21T02:42:54;22.30;99.90
44215;DHT22;29884;47.450;19.124;2023-08-21T02:45:20;22.30;99.90
44215;DHT22;29884;47.450;19.124;2023-08-21T02:47:45;22.30;99.90
44215;DHT22;29884;47.450;19.124;2023-08-21T02:50:11;22.30;99.90
44215;DHT22;29884;47.450;19.124;2023-08-21T02:52:37;22.30;99.90
44215;DHT22;29884;47.450;19.124;2023-08-21T02:55:04;22.30;99.90
44215;DHT22;29884;47.450;19.124;2023-08-21T02:57:30;22.30;99.90
44215;DHT22;29884;47.450;19.124;2023-08-21T02:59:55;22.30;99.90
44215;DHT22;29884;47.450;19.124;2023-08-21T03:02:21;22.30;99.90
44215;DHT22;29884;47.450;19.124;2023-08-21T03:04:48;22.30;99.90
44215;DHT22;29884;47.450;19.124;2023-08-21T03:07:14;22.30;99.90
44215;DHT22;29884;47.450;19.124;2023-08-21T03:09:40;22.30;99.90
44215;DHT22;29884;47.450;19.124;2023-08-21T03:12:07;22.30;99.90
44215;DHT22;29884;47.450;19.124;2023-08-21T03:14:33;22.20;99.90
44215;DHT22;29884;47.450;19.124;2023-08-21T03:16:59;22.20;99.90
44215;DHT22;29884;47.450;19.124;2023-08-21T03:19:25;22.20;99.90
44215;DHT22;29884;47.450;19.124;2023-08-21T03:21:51;22.30;99.90
44215;DHT22;29884;47.450;19.124;2023-08-21T03:24:17;22.20;99.90
44215;DHT22;29884;47.450;19.124;2023-08-21T03:26:44;22.20;99.90
44215;DHT22;29884;47.450;19.124;2023-08-21T03:29:10;22.20;99.90
44215;DHT22;29884;47.450;19.124;2023-08-21T03:31:35;22.20;99.90
44215;DHT22;29884;47.450;19.124;2023-08-21T03:34:01;22.20;99.90
44215;DHT22;29884;47.450;19.124;2023-08-21T03:36:27;22.20;99.90
44215;DHT22;29884;47.450;19.124;2023-08-21T03:39:03;22.20;99.90
44215;DHT22;29884;47.450;19.124;2023-08-21T03:41:32;22.10;99.90
44215;DHT22;29884;47.450;19.124;2023-08-21T03:43:57;22.10;99.90
44215;DHT22;29884;47.450;19.124;2023-08-21T03:46:23;22.10;99.90
44215;DHT22;29884;47.450;19.124;2023-08-21T03:48:49;22.10;99.90
44215;DHT22;29884;47.450;19.124;2023-08-21T03:51:16;22.10;99.90
44215;DHT22;29884;47.450;19.124;2023-08-21T03:53:42;22.10;99.90
44215;DHT22;29884;47.450;19.124;2023-08-21T03:56:07;22.10;99.90
44215;DHT22;29884;47.450;19.124;2023-08-21T03:58:33;22.00;99.90
44215;DHT22;29884;47.450;19.124;2023-08-21T04:00:59;22.00;99.90
44215;DHT22;29884;47.450;19.124;2023-08-21T04:03:25;22.00;99.90
44215;DHT22;29884;47.450;19.124;2023-08-21T04:05:53;22.00;99.90
44215;DHT22;29884;47.450;19.124;2023-08-21T04:08:19;22.00;99.90
44215;DHT22;29884;47.450;19.124;2023-08-21T04:10:44;22.00;99.90
44215;DHT22;29884;47.450;19.124;2023-08-21T04:13:10;22.00;99.90
44215;DHT22;29884;47.450;19.124;2023-08-21T04:15:37;22.00;99.90
44215;DHT22;29884;47.450;19.124;2023-08-21T04:18:03;22.00;99.90
44215;DHT22;29884;47.450;19.124;2023-08-21T04:20:29;22.00;99.90
44215;DHT22;29884;47.450;19.124;2023-08-21T04:22:54;22.10;99.90
44215;DHT22;29884;47.450;19.124;2023-08-21T04:25:20;22.10;99.90
44215;DHT22;29884;47.450;19.124;2023-08-21T04:27:46;22.10;99.90
44215;DHT22;29884;47.450;19.124;2023-08-21T04:30:12;22.10;99.90
44215;DHT22;29884;47.450;19.124;2023-08-21T04:32:38;22.10;99.90
44215;DHT22;29884;47.450;19.124;2023-08-21T04:35:04;22.10;99.90
44215;DHT22;29884;47.450;19.124;2023-08-21T04:37:31;22.20;99.90
44215;DHT22;29884;47.450;19.124;2023-08-21T04:39:57;22.20;99.90
44215;DHT22;29884;47.450;19.124;2023-08-21T04:42:22;22.30;99.90
44215;DHT22;29884;47.450;19.124;2023-08-21T04:44:48;22.30;99.90
44215;DHT22;29884;47.450;19.124;2023-08-21T04:47:24;22.40;99.90
44215;DHT22;29884;47.450;19.124;2023-08-21T04:49:54;22.40;99.90
44215;DHT22;29884;47.450;19.124;2023-08-21T04:52:21;22.50;99.90
44215;DHT22;29884;47.450;19.124;2023-08-21T04:54:48;22.50;99.90
44215;DHT22;29884;47.450;19.124;2023-08-21T04:57:15;22.50;99.90
44215;DHT22;29884;47.450;19.124;2023-08-21T04:59:40;22.60;99.90
44215;DHT22;29884;47.450;19.124;2023-08-21T05:02:06;22.60;99.90
44215;DHT22;29884;47.450;19.124;2023-08-21T05:04:33;22.70;99.90
44215;DHT22;29884;47.450;19.124;2023-08-21T05:07:00;22.70;99.90
44215;DHT22;29884;47.450;19.124;2023-08-21T05:09:26;22.70;99.90
44215;DHT22;29884;47.450;19.124;2023-08-21T05:11:52;22.80;99.90
44215;DHT22;29884;47.450;19.124;2023-08-21T05:14:17;22.80;99.90
44215;DHT22;29884;47.450;19.124;2023-08-21T05:16:45;22.90;99.90
44215;DHT22;29884;47.450;19.124;2023-08-21T05:19:11;23.00;99.90
44215;DHT22;29884;47.450;19.124;2023-08-21T05:21:37;23.00;99.90
44215;DHT22;29884;47.450;19.124;2023-08-21T05:24:02;23.10;99.90
44215;DHT22;29884;47.450;19.124;2023-08-21T05:26:28;23.10;99.90
44215;DHT22;29884;47.450;19.124;2023-08-21T05:28:54;23.20;99.90
44215;DHT22;29884;47.450;19.124;2023-08-21T05:31:19;23.20;99.90
44215;DHT22;29884;47.450;19.124;2023-08-21T05:33:45;23.30;99.90
44215;DHT22;29884;47.450;19.124;2023-08-21T05:36:11;23.40;99.90
44215;DHT22;29884;47.450;19.124;2023-08-21T05:38:37;23.40;99.90
44215;DHT22;29884;47.450;19.124;2023-08-21T05:41:02;23.50;99.90
44215;DHT22;29884;47.450;19.124;2023-08-21T05:43:28;23.50;99.90
44215;DHT22;29884;47.450;19.124;2023-08-21T05:45:54;23.60;99.90
44215;DHT22;29884;47.450;19.124;2023-08-21T05:48:20;23.70;99.90
44215;DHT22;29884;47.450;19.124;2023-08-21T05:50:53;23.80;99.90
44215;DHT22;29884;47.450;19.124;2023-08-21T05:53:19;23.90;99.90
44215;DHT22;29884;47.450;19.124;2023-08-21T05:55:45;23.90;99.90
44215;DHT22;29884;47.450;19.124;2023-08-21T05:58:10;23.90;99.90
44215;DHT22;29884;47.450;19.124;2023-08-21T06:00:38;24.10;99.90
44215;DHT22;29884;47.450;19.124;2023-08-21T06:03:04;24.10;99.90
44215;DHT22;29884;47.450;19.124;2023-08-21T06:05:30;24.20;99.90
44215;DHT22;29884;47.450;19.124;2023-08-21T06:07:56;24.20;99.90
44215;DHT22;29884;47.450;19.124;2023-08-21T06:10:22;24.30;99.90
44215;DHT22;29884;47.450;19.124;2023-08-21T06:12:48;24.30;99.90
44215;DHT22;29884;47.450;19.124;2023-08-21T06:15:14;24.40;99.90
44215;DHT22;29884;47.450;19.124;2023-08-21T06:17:40;24.50;99.90
44215;DHT22;29884;47.450;19.124;2023-08-21T06:20:08;24.60;99.90
44215;DHT22;29884;47.450;19.124;2023-08-21T06:22:37;24.70;99.90
44215;DHT22;29884;47.450;19.124;2023-08-21T06:25:03;24.80;99.90
44215;DHT22;29884;47.450;19.124;2023-08-21T06:27:29;24.80;99.90
44215;DHT22;29884;47.450;19.124;2023-08-21T06:29:55;24.90;99.90
44215;DHT22;29884;47.450;19.124;2023-08-21T06:32:21;25.00;99.90
44215;DHT22;29884;47.450;19.124;2023-08-21T06:34:46;25.00;99.90
44215;DHT22;29884;47.450;19.124;2023-08-21T06:37:12;25.10;99.90
44215;DHT22;29884;47.450;19.124;2023-08-21T06:39:38;25.20;99.90
44215;DHT22;29884;47.450;19.124;2023-08-21T06:42:04;25.30;99.90
44215;DHT22;29884;47.450;19.124;2023-08-21T06:44:30;25.40;99.90
44215;DHT22;29884;47.450;19.124;2023-08-21T06:46:56;25.50;99.90
44215;DHT22;29884;47.450;19.124;2023-08-21T06:49:22;25.50;99.90
44215;DHT22;29884;47.450;19.124;2023-08-21T06:51:49;25.60;99.90
44215;DHT22;29884;47.450;19.124;2023-08-21T06:54:15;25.70;99.90
44215;DHT22;29884;47.450;19.124;2023-08-21T06:56:41;25.80;99.90
44215;DHT22;29884;47.450;19.124;2023-08-21T06:59:07;25.90;99.90
44215;DHT22;29884;47.450;19.124;2023-08-21T07:01:33;26.00;99.90
44215;DHT22;29884;47.450;19.124;2023-08-21T07:03:58;26.00;99.90
44215;DHT22;29884;47.450;19.124;2023-08-21T07:06:24;26.10;99.90
44215;DHT22;29884;47.450;19.124;2023-08-21T07:08:50;26.10;99.90
44215;DHT22;29884;47.450;19.124;2023-08-21T07:11:16;26.20;99.90
44215;DHT22;29884;47.450;19.124;2023-08-21T07:13:43;26.20;99.90
44215;DHT22;29884;47.450;19.124;2023-08-21T07:16:08;26.30;99.90
44215;DHT22;29884;47.450;19.124;2023-08-21T07:18:35;26.40;99.90
44215;DHT22;29884;47.450;19.124;2023-08-21T07:21:01;26.50;99.90
44215;DHT22;29884;47.450;19.124;2023-08-21T07:23:29;26.60;99.90
44215;DHT22;29884;47.450;19.124;2023-08-21T07:25:55;26.70;99.90
44215;DHT22;29884;47.450;19.124;2023-08-21T07:28:21;26.80;99.90
44215;DHT22;29884;47.450;19.124;2023-08-21T07:30:46;26.80;99.90
44215;DHT22;29884;47.450;19.124;2023-08-21T07:33:12;26.90;99.90
44215;DHT22;29884;47.450;19.124;2023-08-21T07:35:38;27.10;99.90
44215;DHT22;29884;47.450;19.124;2023-08-21T07:38:03;27.20;99.90
44215;DHT22;29884;47.450;19.124;2023-08-21T07:40:29;27.30;99.90
44215;DHT22;29884;47.450;19.124;2023-08-21T07:42:55;27.40;99.90
44215;DHT22;29884;47.450;19.124;2023-08-21T07:45:21;27.50;99.90
44215;DHT22;29884;47.450;19.124;2023-08-21T07:47:46;27.80;99.90
44215;DHT22;29884;47.450;19.124;2023-08-21T07:50:12;27.90;99.90
44215;DHT22;29884;47.450;19.124;2023-08-21T07:52:40;28.00;99.90
44215;DHT22;29884;47.450;19.124;2023-08-21T07:55:07;28.10;99.90
44215;DHT22;29884;47.450;19.124;2023-08-21T07:57:33;28.30;99.90
44215;DHT22;29884;47.450;19.124;2023-08-21T07:59:59;28.40;99.90
44215;DHT22;29884;47.450;19.124;2023-08-21T08:02:25;28.50;99.90
44215;DHT22;29884;47.450;19.124;2023-08-21T08:04:50;28.90;99.90
44215;DHT22;29884;47.450;19.124;2023-08-21T08:07:16;28.80;99.90
44215;DHT22;29884;47.450;19.124;2023-08-21T08:09:42;28.80;99.90
44215;DHT22;29884;47.450;19.124;2023-08-21T08:12:08;29.00;99.90
44215;DHT22;29884;47.450;19.124;2023-08-21T08:14:35;29.20;99.90
44215;DHT22;29884;47.450;19.124;2023-08-21T08:17:00;29.30;99.90
44215;DHT22;29884;47.450;19.124;2023-08-21T08:19:35;29.70;99.90
44215;DHT22;29884;47.450;19.124;2023-08-21T08:22:01;29.60;99.90
44215;DHT22;29884;47.450;19.124;2023-08-21T08:24:27;29.60;99.90
44215;DHT22;29884;47.450;19.124;2023-08-21T08:26:53;29.90;99.90
44215;DHT22;29884;47.450;19.124;2023-08-21T08:29:18;30.10;99.90
44215;DHT22;29884;47.450;19.124;2023-08-21T08:31:44;30.10;99.90
44215;DHT22;29884;47.450;19.124;2023-08-21T08:34:10;30.10;99.90
44215;DHT22;29884;47.450;19.124;2023-08-21T08:36:35;30.30;99.90
44215;DHT22;29884;47.450;19.124;2023-08-21T08:39:01;30.30;99.90
44215;DHT22;29884;47.450;19.124;2023-08-21T08:41:34;30.50;99.90
44215;DHT22;29884;47.450;19.124;2023-08-21T08:44:04;30.60;99.90
44215;DHT22;29884;47.450;19.124;2023-08-21T08:46:30;30.80;99.90
44215;DHT22;29884;47.450;19.124;2023-08-21T08:48:56;31.10;99.90
44215;DHT22;29884;47.450;19.124;2023-08-21T08:51:25;31.20;99.90
44215;DHT22;29884;47.450;19.124;2023-08-21T08:53:51;31.20;99.90
44215;DHT22;29884;47.450;19.124;2023-08-21T08:56:16;31.30;99.90
44215;DHT22;29884;47.450;19.124;2023-08-21T08:58:42;31.40;99.90
44215;DHT22;29884;47.450;19.124;2023-08-21T09:01:09;31.60;99.90
44215;DHT22;29884;47.450;19.124;2023-08-21T09:03:36;31.70;99.90
44215;DHT22;29884;47.450;19.124;2023-08-21T09:06:03;31.80;99.40
44215;DHT22;29884;47.450;19.124;2023-08-21T09:08:29;31.70;99.90
44215;DHT22;29884;47.450;19.124;2023-08-21T09:10:55;31.70;99.90
44215;DHT22;29884;47.450;19.124;2023-08-21T09:13:21;31.60;99.90
44215;DHT22;29884;47.450;19.124;2023-08-21T09:15:48;31.70;99.90
44215;DHT22;29884;47.450;19.124;2023-08-21T09:18:17;31.80;99.10
44215;DHT22;29884;47.450;19.124;2023-08-21T09:20:43;32.00;99.90
44215;DHT22;29884;47.450;19.124;2023-08-21T09:23:14;32.10;99.90
44215;DHT22;29884;47.450;19.124;2023-08-21T09:25:39;32.10;99.30
44215;DHT22;29884;47.450;19.124;2023-08-21T09:28:08;32.30;98.30
44215;DHT22;29884;47.450;19.124;2023-08-21T09:30:50;32.40;96.10
44215;DHT22;29884;47.450;19.124;2023-08-21T09:33:20;32.70;95.70
44215;DHT22;29884;47.450;19.124;2023-08-21T09:35:47;32.60;94.00
44215;DHT22;29884;47.450;19.124;2023-08-21T09:38:13;32.60;94.00
44215;DHT22;29884;47.450;19.124;2023-08-21T09:40:44;32.70;93.60
44215;DHT22;29884;47.450;19.124;2023-08-21T09:43:16;32.80;94.50
44215;DHT22;29884;47.450;19.124;2023-08-21T09:45:46;32.80;95.10
44215;DHT22;29884;47.450;19.124;2023-08-21T09:48:13;32.90;94.80
44215;DHT22;29884;47.450;19.124;2023-08-21T09:50:39;33.10;94.10
44215;DHT22;29884;47.450;19.124;2023-08-21T09:53:06;33.10;92.80
44215;DHT22;29884;47.450;19.124;2023-08-21T09:55:33;33.30;91.80
44215;DHT22;29884;47.450;19.124;2023-08-21T09:58:00;33.30;92.90
44215;DHT22;29884;47.450;19.124;2023-08-21T10:00:30;33.50;90.70
44215;DHT22;29884;47.450;19.124;2023-08-21T10:03:00;33.60;93.00
44215;DHT22;29884;47.450;19.124;2023-08-21T10:05:28;33.50;90.30
44215;DHT22;29884;47.450;19.124;2023-08-21T10:07:55;33.70;91.10
44215;DHT22;29884;47.450;19.124;2023-08-21T10:10:21;33.50;84.50
44215;DHT22;29884;47.450;19.124;2023-08-21T10:12:50;33.50;87.80
44215;DHT22;29884;47.450;19.124;2023-08-21T10:15:16;33.20;86.50
44215;DHT22;29884;47.450;19.124;2023-08-21T10:17:43;33.10;91.10
44215;DHT22;29884;47.450;19.124;2023-08-21T10:20:09;33.30;88.90
44215;DHT22;29884;47.450;19.124;2023-08-21T10:22:43;33.40;90.60
44215;DHT22;29884;47.450;19.124;2023-08-21T10:25:22;33.20;86.90
44215;DHT22;29884;47.450;19.124;2023-08-21T10:27:54;33.30;89.60
44215;DHT22;29884;47.450;19.124;2023-08-21T10:30:21;33.20;84.90
44215;DHT22;29884;47.450;19.124;2023-08-21T10:32:49;32.90;84.90
44215;DHT22;29884;47.450;19.124;2023-08-21T10:35:37;33.00;83.50
44215;DHT22;29884;47.450;19.124;2023-08-21T10:38:06;33.60;84.40
44215;DHT22;29884;47.450;19.124;2023-08-21T10:40:34;33.60;83.60
44215;DHT22;29884;47.450;19.124;2023-08-21T10:43:00;33.40;85.40
44215;DHT22;29884;47.450;19.124;2023-08-21T10:45:26;33.70;81.00
44215;DHT22;29884;47.450;19.124;2023-08-21T10:47:51;33.70;86.30
44215;DHT22;29884;47.450;19.124;2023-08-21T10:50:17;33.90;82.50
44215;DHT22;29884;47.450;19.124;2023-08-21T10:52:44;33.80;79.50
44215;DHT22;29884;47.450;19.124;2023-08-21T10:55:14;33.60;79.40
44215;DHT22;29884;47.450;19.124;2023-08-21T10:57:40;33.80;81.40
44215;DHT22;29884;47.450;19.124;2023-08-21T11:00:12;34.00;79.30
44215;DHT22;29884;47.450;19.124;2023-08-21T11:02:45;34.40;80.60
44215;DHT22;29884;47.450;19.124;2023-08-21T11:05:13;34.30;77.40
44215;DHT22;29884;47.450;19.124;2023-08-21T11:07:44;34.30;78.20
44215;DHT22;29884;47.450;19.124;2023-08-21T11:10:15;34.20;78.00
44215;DHT22;29884;47.450;19.124;2023-08-21T11:12:52;34.20;76.50
44215;DHT22;29884;47.450;19.124;2023-08-21T11:15:19;34.20;75.90
44215;DHT22;29884;47.450;19.124;2023-08-21T11:18:11;33.90;75.10
44215;DHT22;29884;47.450;19.124;2023-08-21T11:20:37;33.10;79.30
44215;DHT22;29884;47.450;19.124;2023-08-21T11:23:04;33.10;79.40
44215;DHT22;29884;47.450;19.124;2023-08-21T11:25:33;33.60;79.50
44215;DHT22;29884;47.450;19.124;2023-08-21T11:28:00;33.80;78.80
44215;DHT22;29884;47.450;19.124;2023-08-21T11:30:28;33.90;75.00
44215;DHT22;29884;47.450;19.124;2023-08-21T11:33:12;33.70;74.80
44215;DHT22;29884;47.450;19.124;2023-08-21T11:35:38;33.90;69.80
44215;DHT22;29884;47.450;19.124;2023-08-21T11:38:04;34.20;75.00
44215;DHT22;29884;47.450;19.124;2023-08-21T11:40:30;34.20;73.60
44215;DHT22;29884;47.450;19.124;2023-08-21T11:43:02;34.30;75.80
44215;DHT22;29884;47.450;19.124;2023-08-21T11:45:32;34.30;71.70
44215;DHT22;29884;47.450;19.124;2023-08-21T11:47:58;34.60;72.80
44215;DHT22;29884;47.450;19.124;2023-08-21T11:50:23;34.70;71.50
44215;DHT22;29884;47.450;19.124;2023-08-21T11:52:55;34.90;74.00
44215;DHT22;29884;47.450;19.124;2023-08-21T11:55:20;34.70;68.20
44215;DHT22;29884;47.450;19.124;2023-08-21T11:57:49;34.70;69.70
44215;DHT22;29884;47.450;19.124;2023-08-21T12:00:16;34.80;70.50
44215;DHT22;29884;47.450;19.124;2023-08-21T12:02:54;34.90;68.50
44215;DHT22;29884;47.450;19.124;2023-08-21T12:05:22;34.70;64.80
44215;DHT22;29884;47.450;19.124;2023-08-21T12:07:48;34.30;65.70
44215;DHT22;29884;47.450;19.124;2023-08-21T12:10:13;34.30;64.60
44215;DHT22;29884;47.450;19.124;2023-08-21T12:12:39;34.50;66.50
44215;DHT22;29884;47.450;19.124;2023-08-21T12:15:05;34.70;66.10
44215;DHT22;29884;47.450;19.124;2023-08-21T12:17:31;34.70;64.90
44215;DHT22;29884;47.450;19.124;2023-08-21T12:19:57;34.60;64.40
44215;DHT22;29884;47.450;19.124;2023-08-21T12:22:23;34.50;64.00
44215;DHT22;29884;47.450;19.124;2023-08-21T12:24:48;34.50;63.70
44215;DHT22;29884;47.450;19.124;2023-08-21T12:27:14;34.20;63.70
44215;DHT22;29884;47.450;19.124;2023-08-21T12:29:40;34.10;66.50
44215;DHT22;29884;47.450;19.124;2023-08-21T12:32:05;34.30;65.50
44215;DHT22;29884;47.450;19.124;2023-08-21T12:34:31;34.30;64.90
44215;DHT22;29884;47.450;19.124;2023-08-21T12:36:57;34.30;63.80
44215;DHT22;29884;47.450;19.124;2023-08-21T12:39:23;34.50;64.40
44215;DHT22;29884;47.450;19.124;2023-08-21T12:41:49;34.50;62.30
44215;DHT22;29884;47.450;19.124;2023-08-21T12:44:14;34.80;64.30
44215;DHT22;29884;47.450;19.124;2023-08-21T12:46:40;34.70;62.80
44215;DHT22;29884;47.450;19.124;2023-08-21T12:49:06;34.70;64.20
44215;DHT22;29884;47.450;19.124;2023-08-21T12:51:32;34.50;64.00
44215;DHT22;29884;47.450;19.124;2023-08-21T12:53:58;34.30;64.40
44215;DHT22;29884;47.450;19.124;2023-08-21T12:56:24;34.40;66.70
44215;DHT22;29884;47.450;19.124;2023-08-21T12:58:50;34.50;64.70
44215;DHT22;29884;47.450;19.124;2023-08-21T13:01:16;34.70;67.00
44215;DHT22;29884;47.450;19.124;2023-08-21T13:03:45;34.90;66.80
44215;DHT22;29884;47.450;19.124;2023-08-21T13:06:12;35.00;64.70
44215;DHT22;29884;47.450;19.124;2023-08-21T13:08:38;35.00;64.20
44215;DHT22;29884;47.450;19.124;2023-08-21T13:11:04;35.10;65.00
44215;DHT22;29884;47.450;19.124;2023-08-21T13:13:31;34.60;64.50
44215;DHT22;29884;47.450;19.124;2023-08-21T13:15:57;34.40;65.40
44215;DHT22;29884;47.450;19.124;2023-08-21T13:18:24;34.60;63.30
44215;DHT22;29884;47.450;19.124;2023-08-21T13:20:50;34.60;64.00
44215;DHT22;29884;47.450;19.124;2023-08-21T13:23:15;34.80;67.70
44215;DHT22;29884;47.450;19.124;2023-08-21T13:25:41;34.80;66.80
44215;DHT22;29884;47.450;19.124;2023-08-21T13:28:07;34.90;70.10
44215;DHT22;29884;47.450;19.124;2023-08-21T13:30:32;34.70;65.50
44215;DHT22;29884;47.450;19.124;2023-08-21T13:32:58;34.50;66.00
44215;DHT22;29884;47.450;19.124;2023-08-21T13:35:24;34.40;67.90
44215;DHT22;29884;47.450;19.124;2023-08-21T13:37:50;34.60;67.30
44215;DHT22;29884;47.450;19.124;2023-08-21T13:40:16;34.60;66.70
44215;DHT22;29884;47.450;19.124;2023-08-21T13:42:47;34.60;65.60
44215;DHT22;29884;47.450;19.124;2023-08-21T13:45:17;34.60;66.40
44215;DHT22;29884;47.450;19.124;2023-08-21T13:47:47;34.50;63.30
44215;DHT22;29884;47.450;19.124;2023-08-21T13:50:14;34.60;63.70
44215;DHT22;29884;47.450;19.124;2023-08-21T13:52:41;34.70;65.70
44215;DHT22;29884;47.450;19.124;2023-08-21T13:55:08;34.60;62.80
44215;DHT22;29884;47.450;19.124;2023-08-21T13:57:35;34.50;62.60
44215;DHT22;29884;47.450;19.124;2023-08-21T14:00:02;34.30;61.90
44215;DHT22;29884;47.450;19.124;2023-08-21T14:02:33;34.30;63.20
44215;DHT22;29884;47.450;19.124;2023-08-21T14:04:59;34.30;59.80
44215;DHT22;29884;47.450;19.124;2023-08-21T14:07:24;34.40;63.50
44215;DHT22;29884;47.450;19.124;2023-08-21T14:10:03;34.40;62.80
44215;DHT22;29884;47.450;19.124;2023-08-21T14:12:30;34.30;60.60
44215;DHT22;29884;47.450;19.124;2023-08-21T14:14:57;34.40;61.60
44215;DHT22;29884;47.450;19.124;2023-08-21T14:17:24;34.60;61.50
44215;DHT22;29884;47.450;19.124;2023-08-21T14:19:49;34.60;58.40
44215;DHT22;29884;47.450;19.124;2023-08-21T14:22:15;34.50;57.80
44215;DHT22;29884;47.450;19.124;2023-08-21T14:24:41;34.30;58.60
44215;DHT22;29884;47.450;19.124;2023-08-21T14:27:07;34.30;57.80
44215;DHT22;29884;47.450;19.124;2023-08-21T14:29:32;34.00;56.80
44215;DHT22;29884;47.450;19.124;2023-08-21T14:31:59;34.20;57.40
44215;DHT22;29884;47.450;19.124;2023-08-21T14:34:26;34.20;55.40
44215;DHT22;29884;47.450;19.124;2023-08-21T14:36:53;34.20;53.90
44215;DHT22;29884;47.450;19.124;2023-08-21T14:39:20;34.20;55.30
44215;DHT22;29884;47.450;19.124;2023-08-21T14:41:46;34.30;56.10
44215;DHT22;29884;47.450;19.124;2023-08-21T14:44:12;34.30;56.10
44215;DHT22;29884;47.450;19.124;2023-08-21T14:46:38;34.30;56.60
44215;DHT22;29884;47.450;19.124;2023-08-21T14:49:04;34.20;54.70
44215;DHT22;29884;47.450;19.124;2023-08-21T14:51:29;34.30;54.80
44215;DHT22;29884;47.450;19.124;2023-08-21T14:53:55;34.10;55.10
44215;DHT22;29884;47.450;19.124;2023-08-21T14:56:21;34.10;53.30
44215;DHT22;29884;47.450;19.124;2023-08-21T14:58:47;33.90;54.10
44215;DHT22;29884;47.450;19.124;2023-08-21T15:01:13;33.90;55.20
44215;DHT22;29884;47.450;19.124;2023-08-21T15:03:40;33.90;55.60
44215;DHT22;29884;47.450;19.124;2023-08-21T15:06:06;33.90;55.80
44215;DHT22;29884;47.450;19.124;2023-08-21T15:08:32;33.90;57.60
44215;DHT22;29884;47.450;19.124;2023-08-21T15:10:58;33.80;55.60
44215;DHT22;29884;47.450;19.124;2023-08-21T15:13:24;33.90;53.90
44215;DHT22;29884;47.450;19.124;2023-08-21T15:15:49;33.90;56.10
44215;DHT22;29884;47.450;19.124;2023-08-21T15:18:15;33.80;57.10